PAMKPASM

Guest
Details From PAMK - ST MICHAEL
To PASM - ST MARYS
Flight Number -
Tags generated
Created
Modified
Stats Distance 92 nm / 171 km
Max Altitude 100 ft / 30 m
Waypoints 3
Social Downloads 1
Likes 0
Share VATSIM

Download

Looking for another format? Having issues loading an existing format? Contact us
Advertisement - Login to hide

Notes

Basic altitude profile: - Ascent Rate: 2500ft/min - Ascent Speed: 250kts - Cruise Altitude: 35000ft - Cruise Speed: 420kts - Descent Rate: 1500ft/min - Descent Speed: 250kts Options: - Use NATs: yes - Use PACOTS: yes - Use low airways: yes - Use high airways: yes

Route

PAMK SMA PASM

ID Type Via Altitude Latitude Longitude Leg Dist Tot Dist Heading (true) Name
O PAMK APT - 0 ft / 0 m 63.49005˚ -162.11038˚ - 0 nm - ST MICHAEL
SMA NDB - 100 ft / 30 m 62.05939˚ -163.28189˚ 91 nm 91 nm 201° / 200° ST MARYS NDB
O PASM APT - 0 ft / 0 m 62.05818˚ -163.30311˚ 0 nm 92 nm 263° / 263° ST MARYS

Altitude Profile

Advertisement - Login to hide

PAMK

Details ICAO PAMK (SMK)
Name ST MICHAEL
Region USA (Alaska)
Timezone America/Nome (UTC-9.0)
Stats Elevation 93 ft / 28 m (AMSL)
Location 63.490049° -162.110378°
Runways 1
Magnetic Variation 11.552° E

METAR

PAMK 120456Z AUTO 20006KT 10SM SCT034 OVC042 M05/M06 A2937 RMK AO2 SNB27E48 SLP949 P0000 T10501056 FZRANO $

Decode

TAF

Not found

Departure Runways

ID Width Length Bearing (true) Bearing (mag) Surface Threshold Offset Overrun Length
02 75 ft / 23 m 3,991 ft / 1,216 m 32.86° 21.31° Gravel 0 ft / 0 m 299 ft / 91 m
20 75 ft / 23 m 3,991 ft / 1,216 m 212.87° 201.32° Gravel 0 ft / 0 m 299 ft / 91 m

PASM

Details ICAO PASM (KSM)
Name ST MARYS
Region USA (Alaska)
Timezone America/Nome (UTC-9.0)
Stats Elevation 311 ft / 95 m (AMSL)
Location 62.058179° -163.303112°
Runways 2
Magnetic Variation 10.915° E

METAR

PASM 120456Z AUTO 03003KT 9SM -SN BKN008 OVC026 M04/M04 A2937 RMK AO2 SLP962 P0000 T10391044 FZRANO

Decode

TAF

Not found

Destination Runways

ID Width Length Bearing (true) Bearing (mag) Surface Threshold Offset Overrun Length
06 59 ft / 18 m 1,521 ft / 464 m 77.35° 66.44° Gravel 0 ft / 0 m 0 ft / 0 m
17 151 ft / 46 m 6,014 ft / 1,833 m 182.45° 171.54° Gravel 0 ft / 0 m 0 ft / 0 m
24 59 ft / 18 m 1,521 ft / 464 m 257.36° 246.45° Gravel 374 ft / 114 m 0 ft / 0 m
35 151 ft / 46 m 6,014 ft / 1,833 m 2.44° 351.53° Gravel 0 ft / 0 m 0 ft / 0 m

Approach Navaids

Runway Type Ident Frequency Range Bearing (true) Bearing (mag) Slope Elevation
17 Localiser ISMA 109.10 MHz 18 nm / 33 km 182.45° 171.53° - 311 ft / 95 m (AMSL)
17 DME ISMA 109.10 MHz 18 nm / 33 km - - - 311 ft / 95 m (AMSL)